Time;durP1;ratioP1;P1;durP2;ratioP2;P2;SDS_P1;SDS_P2;PMS_P1;PMS_P2;Temp;Humidity;BMP_temperature;BMP_pressure;BME280_temperature;BME280_humidity;BME280_pressure;Samples;Min_cycle;Max_cycle;Signal;HPM_P1;HPM_P2
2022/06/05 00:01:37;;;;;;;;;;;17.20;91.60;;;;;;4976759;28;20019;-73
2022/06/05 00:05:01;;;;;;;13.10;3.05;;;17.10;91.70;;;;;;4972933;28;19910;-73
2022/06/05 00:08:16;;;;;;;13.82;4.07;;;17.20;92.00;;;;;;4976621;28;20057;-72
2022/06/05 00:11:22;;;;;;;9.23;2.28;;;17.10;92.10;;;;;;4981013;28;20088;-72
2022/06/05 00:14:30;;;;;;;7.40;2.83;;;17.10;92.10;;;;;;4973762;28;20058;-72
2022/06/05 00:17:36;;;;;;;8.18;3.00;;;17.10;92.20;;;;;;4978969;28;20056;-73
2022/06/05 00:20:42;;;;;;;13.85;3.88;;;17.10;92.30;;;;;;4977223;28;20101;-72
2022/06/05 00:23:50;;;;;;;13.95;3.60;;;17.10;92.30;;;;;;4982543;28;20030;-72
2022/06/05 00:27:11;;;;;;;16.02;3.25;;;17.00;92.30;;;;;;4978836;28;20029;-72
2022/06/05 00:30:15;;;;;;;10.85;3.17;;;17.00;92.30;;;;;;4986338;28;20026;-69
2022/06/05 00:33:30;;;;;;;18.58;3.83;;;17.00;92.40;;;;;;4981065;28;20034;-70
2022/06/05 00:36:42;;;;;;;8.98;2.90;;;17.00;92.40;;;;;;4977474;28;20116;-69
2022/06/05 00:39:46;;;;;;;7.05;2.40;;;17.00;92.40;;;;;;4982955;28;20045;-72
2022/06/05 00:42:52;;;;;;;13.13;3.58;;;17.00;92.40;;;;;;4977680;28;20041;-72
2022/06/05 00:45:58;;;;;;;13.65;2.95;;;17.00;92.40;;;;;;4975083;28;20027;-70
2022/06/05 00:49:05;;;;;;;5.43;2.15;;;17.00;92.40;;;;;;4972208;28;20022;-69
2022/06/05 00:52:11;;;;;;;10.27;3.17;;;17.00;92.30;;;;;;4973049;28;20030;-71
2022/06/05 00:55:17;;;;;;;9.52;2.22;;;17.00;92.30;;;;;;4979115;28;20413;-70
2022/06/05 00:58:23;;;;;;;7.28;2.38;;;16.90;92.30;;;;;;4971614;28;20092;-72
2022/06/05 01:01:29;;;;;;;8.35;2.88;;;16.90;92.30;;;;;;4975062;28;20384;-70
2022/06/05 01:04:35;;;;;;;8.40;2.15;;;16.90;92.30;;;;;;4977300;28;20132;-71
2022/06/05 01:07:41;;;;;;;7.53;2.33;;;16.90;92.20;;;;;;4977111;28;20023;-70
2022/06/05 01:10:33;;;;;;;11.20;2.88;;;16.90;92.10;;;;;;4979489;28;20049;-72
2022/06/05 01:13:35;;;;;;;12.63;2.83;;;16.90;92.10;;;;;;4972709;28;20030;-72
2022/06/05 01:16:30;;;;;;;10.77;2.80;;;16.90;92.20;;;;;;4974199;28;20031;-69
2022/06/05 01:20:01;;;;;;;13.48;3.35;;;16.90;92.20;;;;;;4985344;28;20413;-72
2022/06/05 01:22:48;;;;;;;6.75;2.50;;;16.90;92.20;;;;;;4990986;28;20027;-70
2022/06/05 01:26:03;;;;;;;16.35;2.83;;;16.90;92.10;;;;;;4979850;28;20105;-69
2022/06/05 01:29:25;;;;;;;7.85;1.90;;;16.90;92.00;;;;;;4984726;28;20105;-69
2022/06/05 01:32:31;;;;;;;11.40;2.30;;;16.90;91.90;;;;;;4984951;28;20035;-69
2022/06/05 01:35:21;;;;;;;7.88;2.22;;;16.90;91.80;;;;;;4980308;28;20110;-71
2022/06/05 01:38:29;;;;;;;11.95;2.25;;;16.90;91.70;;;;;;4980425;28;20062;-71
2022/06/05 01:41:35;;;;;;;7.88;3.55;;;16.90;91.60;;;;;;4986035;28;20027;-70
2022/06/05 01:44:41;;;;;;;7.00;2.97;;;16.90;91.40;;;;;;4982765;28;20021;-70
2022/06/05 01:47:50;;;;;;;14.02;3.15;;;16.80;91.30;;;;;;4983748;28;20019;-69
2022/06/05 01:51:06;;;;;;;5.35;1.80;;;16.80;91.20;;;;;;4980428;28;20370;-71
2022/06/05 01:53:58;;;;;;;13.35;3.65;;;16.80;91.10;;;;;;4979203;28;20482;-69
2022/06/05 01:57:05;;;;;;;14.77;3.15;;;16.80;90.90;;;;;;4981122;28;20485;-72
2022/06/05 01:59:51;;;;;;;;;;;16.70;90.70;;;;;;4978188;28;20015;-70
2022/06/05 02:02:57;;;;;;;22.75;5.18;;;16.70;90.90;;;;;;4981670;28;19906;-71
2022/06/05 02:06:09;;;;;;;17.15;4.05;;;16.70;91.10;;;;;;4986615;28;20022;-69
2022/06/05 02:09:18;;;;;;;25.80;2.30;;;16.80;91.40;;;;;;4978575;28;20054;-69
2022/06/05 02:12:24;;;;;;;5.43;2.28;;;16.80;91.40;;;;;;4981933;28;20413;-69
2022/06/05 02:15:31;;;;;;;8.55;1.95;;;16.70;91.50;;;;;;4978880;28;20131;-69
2022/06/05 02:18:37;;;;;;;6.82;2.88;;;16.70;91.10;;;;;;4975128;28;20407;-69
2022/06/05 02:21:43;;;;;;;4.40;2.33;;;16.70;91.00;;;;;;4976997;28;20055;-69
2022/06/05 02:24:49;;;;;;;6.10;1.73;;;16.70;90.90;;;;;;4983439;28;20461;-72
2022/06/05 02:27:55;;;;;;;6.43;1.52;;;16.70;90.90;;;;;;4977409;28;20064;-72
2022/06/05 02:30:51;;;;;;;5.93;1.90;;;16.70;90.80;;;;;;4976017;28;20037;-71
2022/06/05 02:33:40;;;;;;;4.90;1.30;;;16.70;90.70;;;;;;4978653;28;20019;-71
2022/06/05 02:36:46;;;;;;;6.53;1.67;;;16.70;90.70;;;;;;4983005;28;20041;-71
2022/06/05 02:39:19;;;;;;;7.90;1.50;;;16.60;90.70;;;;;;4980941;28;20150;-71
2022/06/05 02:42:40;;;;;;;7.40;1.83;;;16.60;90.70;;;;;;4981672;28;20014;-71
2022/06/05 02:45:51;;;;;;;10.32;2.05;;;16.60;90.60;;;;;;4997915;28;20030;-69
2022/06/05 02:48:53;;;;;;;9.30;2.45;;;16.60;90.70;;;;;;4981933;28;20047;-70
2022/06/05 02:51:59;;;;;;;8.05;2.25;;;16.60;90.70;;;;;;4984005;28;20087;-70
2022/06/05 02:55:08;;;;;;;6.90;2.30;;;16.60;90.60;;;;;;4978216;28;20474;-71
2022/06/05 02:58:14;;;;;;;6.45;2.42;;;16.60;90.60;;;;;;4984501;28;20022;-72
2022/06/05 03:04:44;;;;;;;5.38;1.75;;;16.60;90.50;;;;;;4977658;28;20145;-71
2022/06/05 03:07:50;;;;;;;5.38;1.80;;;16.60;90.50;;;;;;4977214;28;20087;-71
2022/06/05 03:10:56;;;;;;;10.05;2.25;;;16.60;90.40;;;;;;4982135;28;20033;-70
2022/06/05 03:14:02;;;;;;;11.18;3.20;;;16.60;90.40;;;;;;4981369;28;20046;-71
2022/06/05 03:17:08;;;;;;;10.85;2.42;;;16.60;90.60;;;;;;4979325;28;20015;-71
2022/06/05 03:20:14;;;;;;;4.57;1.83;;;16.60;90.60;;;;;;4976851;28;20106;-69
2022/06/05 03:23:20;;;;;;;10.20;2.38;;;16.60;90.60;;;;;;4979890;28;20524;-72
2022/06/05 03:26:29;;;;;;;7.53;1.55;;;16.60;90.60;;;;;;4974440;28;20027;-71
2022/06/05 03:29:35;;;;;;;11.90;3.05;;;16.50;90.50;;;;;;4975198;28;20126;-70
2022/06/05 03:32:41;;;;;;;4.50;1.70;;;16.60;90.50;;;;;;4978847;28;20046;-71
2022/06/05 03:35:47;;;;;;;4.95;2.25;;;16.60;90.40;;;;;;4980448;28;20027;-71
2022/06/05 03:38:53;;;;;;;5.60;2.30;;;16.50;90.40;;;;;;4975590;28;20115;-70
2022/06/05 03:41:59;;;;;;;11.70;2.53;;;16.50;90.30;;;;;;4980011;28;20033;-70
2022/06/05 03:45:06;;;;;;;7.35;3.20;;;16.50;90.20;;;;;;4976142;28;20157;-71
2022/06/05 03:48:12;;;;;;;9.38;2.85;;;16.50;90.30;;;;;;4978942;28;20026;-71
2022/06/05 03:51:19;;;;;;;14.27;3.95;;;16.50;90.20;;;;;;4982258;28;20107;-71
2022/06/05 03:54:25;;;;;;;12.70;3.17;;;16.50;90.10;;;;;;4973045;28;20470;-72
2022/06/05 03:57:31;;;;;;;17.45;3.25;;;16.50;90.30;;;;;;4977044;28;20071;-70
2022/06/05 04:00:37;;;;;;;12.75;2.65;;;16.40;90.30;;;;;;4978230;28;20434;-70
2022/06/05 04:03:43;;;;;;;9.02;3.80;;;16.40;90.30;;;;;;4977749;28;20121;-72
2022/06/05 04:06:49;;;;;;;6.05;1.77;;;16.40;90.10;;;;;;4978479;28;20019;-70
2022/06/05 04:09:55;;;;;;;9.65;2.25;;;16.40;90.10;;;;;;4975539;28;20037;-70
2022/06/05 04:13:01;;;;;;;3.78;1.48;;;16.40;90.00;;;;;;4983255;28;20066;-71
2022/06/05 04:16:07;;;;;;;6.50;1.73;;;16.40;89.70;;;;;;4977951;28;20022;-70
2022/06/05 04:19:13;;;;;;;6.35;2.20;;;16.40;89.20;;;;;;4976455;28;20454;-69
2022/06/05 04:22:19;;;;;;;7.72;2.50;;;16.40;89.20;;;;;;4972218;28;20026;-71
2022/06/05 04:25:26;;;;;;;8.75;2.08;;;16.40;89.60;;;;;;4974219;28;20030;-68
2022/06/05 04:28:32;;;;;;;8.27;1.55;;;16.40;90.00;;;;;;4976199;28;20027;-71
2022/06/05 04:31:38;;;;;;;5.93;1.63;;;16.40;90.10;;;;;;4976213;28;20461;-71
2022/06/05 04:34:44;;;;;;;9.52;2.20;;;16.40;90.20;;;;;;4987235;28;20033;-70
2022/06/05 04:37:50;;;;;;;11.05;1.40;;;16.40;90.20;;;;;;4975526;28;20038;-71
2022/06/05 04:40:56;;;;;;;14.27;2.13;;;16.40;89.90;;;;;;4977704;28;20081;-70
2022/06/05 04:44:02;;;;;;;7.22;2.25;;;16.40;89.50;;;;;;4972685;28;20018;-71
2022/06/05 04:47:08;;;;;;;4.75;1.48;;;16.30;88.90;;;;;;4976717;28;20069;-70
2022/06/05 04:50:15;;;;;;;6.57;2.35;;;16.30;88.70;;;;;;4975188;28;20015;-68
2022/06/05 04:53:21;;;;;;;8.38;2.55;;;16.30;88.40;;;;;;4975640;28;20074;-69
2022/06/05 04:56:27;;;;;;;5.88;2.33;;;16.20;88.00;;;;;;4977903;28;20031;-71
2022/06/05 04:59:33;;;;;;;9.60;2.17;;;16.20;87.70;;;;;;4974461;28;20390;-68
2022/06/05 05:02:39;;;;;;;8.52;1.63;;;16.20;87.50;;;;;;4978536;28;20044;-68
2022/06/05 05:05:45;;;;;;;3.75;1.42;;;16.10;87.50;;;;;;4974116;28;20019;-70
2022/06/05 05:08:51;;;;;;;10.27;1.67;;;16.10;87.50;;;;;;4979736;28;20437;-71
2022/06/05 05:11:57;;;;;;;7.43;1.92;;;16.10;87.40;;;;;;4982587;28;20022;-71
2022/06/05 05:15:03;;;;;;;9.07;1.75;;;16.10;87.40;;;;;;4981203;28;20026;-70
2022/06/05 05:18:09;;;;;;;8.70;2.40;;;16.10;87.30;;;;;;4979108;28;20396;-69
2022/06/05 05:21:15;;;;;;;6.78;1.85;;;16.00;87.30;;;;;;4972340;28;20027;-70
2022/06/05 05:24:21;;;;;;;6.15;2.47;;;16.00;87.30;;;;;;4986262;28;20031;-70
2022/06/05 05:27:27;;;;;;;4.13;1.88;;;16.00;87.20;;;;;;4982102;28;20030;-68
2022/06/05 05:30:34;;;;;;;9.73;2.47;;;16.00;87.20;;;;;;4976630;28;20443;-71
2022/06/05 05:33:40;;;;;;;8.05;3.47;;;16.00;87.10;;;;;;4977713;28;20023;-71
2022/06/05 05:36:46;;;;;;;7.80;3.80;;;16.00;87.10;;;;;;4972650;28;20473;-71
2022/06/05 05:43:16;;;;;;;10.90;5.57;;;15.90;87.10;;;;;;4974116;28;20033;-72
2022/06/05 05:46:22;;;;;;;11.60;6.03;;;15.90;87.10;;;;;;4976539;28;20062;-72
2022/06/05 05:49:28;;;;;;;11.77;6.03;;;15.80;87.10;;;;;;4981386;28;20431;-69
2022/06/05 05:52:34;;;;;;;15.13;6.30;;;15.80;87.20;;;;;;4976712;28;20492;-69
2022/06/05 05:55:42;;;;;;;13.65;4.68;;;15.80;87.10;;;;;;4981116;28;20102;-71
2022/06/05 05:58:48;;;;;;;7.22;3.42;;;15.80;87.10;;;;;;4974054;28;20033;-70
2022/06/05 06:01:54;;;;;;;9.50;3.25;;;15.80;87.10;;;;;;4977697;28;20014;-69
2022/06/05 06:05:01;;;;;;;21.10;3.47;;;15.80;87.10;;;;;;4975874;28;20027;-69
2022/06/05 06:08:07;;;;;;;14.05;3.20;;;15.80;87.50;;;;;;4978110;28;20034;-71
2022/06/05 06:11:13;;;;;;;8.18;2.42;;;15.80;87.40;;;;;;4984594;28;20430;-69
2022/06/05 06:14:19;;;;;;;4.97;2.83;;;15.80;87.20;;;;;;4977462;28;20080;-71
2022/06/05 06:17:25;;;;;;;9.13;2.20;;;15.80;87.00;;;;;;4979316;28;20041;-69
2022/06/05 06:20:31;;;;;;;8.13;2.10;;;15.80;86.90;;;;;;4981463;28;20073;-71
2022/06/05 06:23:37;;;;;;;8.77;2.63;;;15.80;86.80;;;;;;4976792;28;20015;-69
2022/06/05 06:26:46;;;;;;;6.90;2.47;;;15.70;86.70;;;;;;4976207;28;20106;-72
2022/06/05 06:29:52;;;;;;;7.85;2.08;;;15.70;86.80;;;;;;4983357;28;20022;-69
2022/06/05 06:32:58;;;;;;;7.70;2.58;;;15.70;86.80;;;;;;4980018;28;20023;-71
2022/06/05 06:36:04;;;;;;;7.53;2.05;;;15.70;86.90;;;;;;4975462;28;20465;-69
2022/06/05 06:39:10;;;;;;;3.70;2.30;;;15.70;86.90;;;;;;4977302;28;20432;-70
2022/06/05 06:42:16;;;;;;;7.18;2.13;;;15.70;87.20;;;;;;4979590;28;20031;-70
2022/06/05 06:45:22;;;;;;;8.90;2.00;;;15.70;87.30;;;;;;4982521;28;20026;-69
2022/06/05 06:48:28;;;;;;;7.03;2.08;;;15.70;87.40;;;;;;4980132;28;20019;-72
2022/06/05 06:51:34;;;;;;;5.85;1.80;;;15.70;87.50;;;;;;4984714;28;20031;-72
2022/06/05 06:54:40;;;;;;;10.30;2.40;;;15.70;87.70;;;;;;4976955;28;20019;-69
2022/06/05 06:57:46;;;;;;;10.13;4.00;;;15.70;87.80;;;;;;4979727;28;20027;-72
2022/06/05 07:00:53;;;;;;;21.33;4.07;;;15.80;88.00;;;;;;4978414;28;20030;-71
2022/06/05 07:03:59;;;;;;;15.43;3.50;;;15.70;88.20;;;;;;4977407;28;20031;-70
2022/06/05 07:07:05;;;;;;;18.67;3.28;;;15.70;88.40;;;;;;4976026;28;20124;-69
2022/06/05 07:10:11;;;;;;;23.17;3.83;;;15.80;88.90;;;;;;4975298;28;20007;-70
2022/06/05 07:13:17;;;;;;;12.18;3.85;;;15.80;89.10;;;;;;4976990;28;20666;-70
2022/06/05 07:16:23;;;;;;;22.33;4.05;;;15.90;89.30;;;;;;4979263;28;20065;-69
2022/06/05 07:19:30;;;;;;;7.95;2.63;;;15.90;89.30;;;;;;4979599;28;20030;-71
2022/06/05 07:22:36;;;;;;;4.95;2.05;;;15.90;89.30;;;;;;4977650;28;20359;-73
2022/06/05 07:25:42;;;;;;;10.10;2.42;;;15.90;89.50;;;;;;4973781;28;20060;-71
2022/06/05 07:28:49;;;;;;;3.72;1.92;;;15.90;89.60;;;;;;4979117;28;20019;-73
2022/06/05 07:31:55;;;;;;;10.25;1.52;;;16.00;89.70;;;;;;4981467;28;20042;-71
2022/06/05 07:35:01;;;;;;;7.00;2.53;;;16.00;89.80;;;;;;4982230;28;20488;-74
2022/06/05 07:38:07;;;;;;;7.28;2.25;;;16.10;90.00;;;;;;4974748;28;20047;-70
2022/06/05 07:41:13;;;;;;;4.68;1.17;;;16.10;89.70;;;;;;4978667;28;20138;-70
2022/06/05 07:44:19;;;;;;;4.90;1.42;;;16.10;89.70;;;;;;4982164;28;20025;-70
2022/06/05 07:47:25;;;;;;;7.60;3.20;;;16.10;89.60;;;;;;4972931;28;20027;-73
2022/06/05 07:50:31;;;;;;;4.55;1.80;;;16.20;89.70;;;;;;4982731;28;20119;-70
2022/06/05 07:57:01;;;;;;;4.68;1.90;;;16.30;89.10;;;;;;4976459;28;20041;-74
2022/06/05 08:00:08;;;;;;;4.60;1.75;;;16.30;88.90;;;;;;4976960;28;20050;-74
2022/06/05 08:03:14;;;;;;;4.18;1.58;;;16.30;88.70;;;;;;4977850;28;20066;-74
2022/06/05 08:06:20;;;;;;;6.88;2.15;;;16.30;88.70;;;;;;4975472;28;20494;-74
2022/06/05 08:09:26;;;;;;;1.60;1.35;;;16.40;88.70;;;;;;4983259;28;20026;-75
2022/06/05 08:12:32;;;;;;;7.38;2.05;;;16.40;88.80;;;;;;4993252;28;20138;-74
2022/06/05 08:15:38;;;;;;;2.85;1.80;;;16.40;88.70;;;;;;4980706;28;20034;-72
2022/06/05 08:18:44;;;;;;;2.30;1.40;;;16.50;88.70;;;;;;4981402;28;20019;-71
2022/06/05 09:40:22;;;;;;;15.43;5.35;;;17.80;79.60;;;;;;4978078;28;20055;-73
2022/06/05 09:43:11;;;;;;;23.15;5.90;;;17.80;79.60;;;;;;4993341;28;20035;-70
2022/06/05 09:45:47;;;;;;;17.50;7.50;;;17.90;79.50;;;;;;5001322;28;20023;-75
2022/06/05 09:48:33;;;;;;;42.97;28.67;;;18.00;80.00;;;;;;4994849;28;20095;-71
2022/06/05 09:51:01;;;;;;;31.77;21.20;;;18.10;80.00;;;;;;4993745;28;20514;-69
2022/06/05 09:53:35;;;;;;;20.98;15.18;;;18.20;79.90;;;;;;4995728;28;20386;-70
2022/06/05 09:56:34;;;;;;;15.32;10.65;;;18.30;79.90;;;;;;4996661;28;20027;-71
2022/06/05 09:59:16;;;;;;;12.43;7.90;;;18.30;79.20;;;;;;4992961;28;20117;-69
2022/06/05 10:01:59;;;;;;;11.35;6.07;;;18.40;79.40;;;;;;4998584;28;20034;-70
2022/06/05 10:04:30;;;;;;;13.23;6.38;;;18.50;79.10;;;;;;4994317;28;20030;-72
2022/06/05 10:07:08;;;;;;;16.35;5.88;;;18.50;78.90;;;;;;5000972;28;20045;-75
2022/06/05 10:09:42;;;;;;;14.02;5.00;;;18.60;78.20;;;;;;4995416;28;20037;-75
2022/06/05 10:12:28;;;;;;;32.03;17.88;;;18.70;78.10;;;;;;4996831;28;20034;-74
2022/06/05 10:15:17;;;;;;;;;;;18.70;77.60;;;;;;4998015;28;20053;-75
2022/06/05 10:18:10;;;;;;;59.72;41.80;;;18.80;77.40;;;;;;5001214;28;19909;-75
2022/06/05 10:20:58;;;;;;;53.80;37.05;;;18.80;76.80;;;;;;5000273;28;20074;-74
2022/06/05 10:23:43;;;;;;;29.40;17.98;;;18.90;77.10;;;;;;5001978;28;20038;-74
2022/06/05 10:26:28;;;;;;;16.17;9.88;;;19.00;76.70;;;;;;4999272;28;20026;-73
2022/06/05 10:29:10;;;;;;;8.45;6.88;;;19.00;76.10;;;;;;4998327;28;20406;-73
2022/06/05 10:31:48;;;;;;;10.05;4.65;;;19.00;75.40;;;;;;4996203;28;20042;-74
2022/06/05 10:34:34;;;;;;;7.80;3.80;;;19.10;75.00;;;;;;5001059;28;20022;-73
2022/06/05 10:37:15;;;;;;;6.65;4.32;;;19.20;74.50;;;;;;4994930;28;20121;-75
2022/06/05 10:39:57;;;;;;;8.77;4.47;;;19.20;73.00;;;;;;4997934;28;20034;-76
2022/06/05 10:42:33;;;;;;;4.95;3.03;;;19.30;72.70;;;;;;4994551;28;20038;-72
2022/06/05 10:45:09;;;;;;;7.70;3.35;;;19.40;72.00;;;;;;5001181;28;20113;-74
2022/06/05 10:47:57;;;;;;;12.70;4.00;;;19.40;71.50;;;;;;4997428;28;20018;-75
2022/06/05 10:51:07;;;;;;;13.73;4.03;;;19.60;71.30;;;;;;4994037;28;20050;-72
2022/06/05 10:53:37;;;;;;;5.93;2.70;;;19.60;71.80;;;;;;5002599;28;20041;-73
2022/06/05 10:56:28;;;;;;;102.82;82.70;;;19.70;70.30;;;;;;4998753;28;20042;-71
2022/06/05 10:59:17;;;;;;;38.70;31.20;;;19.70;69.80;;;;;;4996692;28;20081;-71
2022/06/05 11:02:12;;;;;;;27.58;19.27;;;19.80;69.00;;;;;;4996662;28;20037;-71
2022/06/05 11:04:47;;;;;;;14.63;8.73;;;19.90;69.00;;;;;;5017428;28;20031;-71
2022/06/05 11:07:13;;;;;;;;;;;20.00;68.40;;;;;;5001152;28;20038;-73
2022/06/05 11:09:51;;;;;;;6.72;4.72;;;20.10;68.60;;;;;;4998750;28;19909;-75
2022/06/05 11:16:05;;;;;;;6.32;3.30;;;20.20;67.50;;;;;;5000885;28;20044;-75
2022/06/05 11:19:08;;;;;;;8.60;3.35;;;20.30;67.20;;;;;;4996991;28;20030;-76
2022/06/05 11:21:36;;;;;;;6.30;3.42;;;20.40;67.30;;;;;;4997699;28;20092;-73
2022/06/05 11:24:07;;;;;;;8.70;3.53;;;20.40;66.90;;;;;;5000023;28;20401;-77
2022/06/05 11:27:04;;;;;;;9.52;4.05;;;20.50;66.90;;;;;;4998873;28;20147;-75
2022/06/05 11:29:54;;;;;;;6.47;3.95;;;20.50;66.80;;;;;;4998891;28;20037;-72
2022/06/05 11:32:24;;;;;;;9.75;4.40;;;20.60;66.70;;;;;;4999958;28;20046;-71
2022/06/05 11:35:11;;;;;;;11.18;4.07;;;20.70;66.30;;;;;;4998002;28;20417;-76
2022/06/05 11:37:59;;;;;;;11.50;3.78;;;20.80;65.90;;;;;;4995930;28;20022;-72
2022/06/05 11:40:35;;;;;;;6.32;3.72;;;20.80;66.30;;;;;;4997185;28;20038;-72
2022/06/05 11:43:52;;;;;;;10.68;3.90;;;20.80;66.10;;;;;;5000710;28;20552;-77
2022/06/05 11:46:30;;;;;;;7.93;4.32;;;20.90;65.80;;;;;;5022316;28;20034;-74
2022/06/05 11:49:17;;;;;;;19.38;6.57;;;20.90;65.20;;;;;;4998807;28;20043;-73
2022/06/05 11:52:05;;;;;;;51.38;39.30;;;21.00;65.20;;;;;;4997880;28;20049;-75
2022/06/05 11:55:06;;;;;;;18.20;13.48;;;21.00;65.40;;;;;;5002136;28;20042;-71
2022/06/05 11:57:36;;;;;;;16.02;6.75;;;21.10;65.50;;;;;;4994788;28;20068;-75
2022/06/05 12:00:16;;;;;;;15.45;5.93;;;21.10;65.60;;;;;;5004946;28;20031;-71
2022/06/05 12:03:01;;;;;;;8.57;4.65;;;21.20;65.50;;;;;;4997517;28;20030;-75
2022/06/05 12:05:42;;;;;;;10.25;5.00;;;21.20;64.50;;;;;;4994597;28;20026;-72
2022/06/05 12:08:14;;;;;;;14.27;4.82;;;21.30;64.20;;;;;;4999000;28;20038;-72
2022/06/05 12:11:21;;;;;;;13.48;4.85;;;21.40;63.60;;;;;;4997234;28;20033;-73
2022/06/05 12:14:46;;;;;;;11.80;4.70;;;21.40;63.40;;;;;;5026359;28;21154;-74
2022/06/05 12:17:24;;;;;;;8.85;4.60;;;21.40;63.60;;;;;;4967966;28;20106;-75
2022/06/05 12:20:31;;;;;;;9.95;5.45;;;21.50;63.50;;;;;;5032612;28;20403;-74
2022/06/05 12:23:16;;;;;;;9.07;4.75;;;21.60;63.40;;;;;;5036835;28;20511;-73
2022/06/05 12:25:57;;;;;;;8.20;5.03;;;21.60;63.10;;;;;;4999597;28;20035;-71
2022/06/05 12:28:32;;;;;;;10.13;5.03;;;21.60;63.00;;;;;;4993965;28;20038;-76
2022/06/05 12:31:15;;;;;;;13.73;5.40;;;21.70;62.60;;;;;;4997740;28;20026;-73
2022/06/05 12:34:14;;;;;;;13.82;5.95;;;21.70;62.50;;;;;;4995982;28;20114;-75
2022/06/05 12:36:46;;;;;;;72.95;54.70;;;21.70;62.00;;;;;;4999174;28;20042;-75
2022/06/05 12:39:12;;;;;;;16.25;9.63;;;21.70;61.90;;;;;;5000969;28;20070;-74
2022/06/05 12:42:00;;;;;;;17.33;8.98;;;21.80;61.60;;;;;;4998032;28;20142;-73
2022/06/05 12:44:42;;;;;;;10.43;6.78;;;21.80;61.70;;;;;;4995855;28;20080;-72
2022/06/05 12:47:30;;;;;;;10.13;6.13;;;21.80;61.20;;;;;;4999525;28;20037;-75
2022/06/05 12:50:02;;;;;;;14.93;5.80;;;21.90;61.30;;;;;;4995357;28;20045;-77
2022/06/05 12:52:44;;;;;;;11.88;6.20;;;21.90;60.80;;;;;;4995861;28;20374;-74
2022/06/05 12:55:23;;;;;;;10.20;6.68;;;21.90;61.00;;;;;;5000948;28;20026;-77
2022/06/05 12:58:03;;;;;;;10.63;5.70;;;21.90;60.50;;;;;;5000313;28;20534;-78
2022/06/05 13:00:48;;;;;;;10.77;5.75;;;21.90;60.50;;;;;;4999056;28;20050;-74
2022/06/05 13:03:44;;;;;;;12.82;5.32;;;21.90;60.30;;;;;;4998252;28;20105;-76
2022/06/05 13:06:47;;;;;;;12.23;7.00;;;22.00;60.60;;;;;;5001768;28;20121;-75
2022/06/05 13:09:34;;;;;;;13.25;6.68;;;22.00;60.20;;;;;;4997741;28;20041;-75
2022/06/05 13:12:31;;;;;;;11.77;5.43;;;22.00;60.00;;;;;;4996290;28;20050;-75
2022/06/05 13:15:15;;;;;;;21.92;7.35;;;22.10;59.20;;;;;;4998172;28;20072;-75
2022/06/05 13:17:53;;;;;;;8.02;5.53;;;22.10;59.00;;;;;;4994121;28;20122;-75
2022/06/05 13:20:34;;;;;;;11.07;6.50;;;22.10;59.30;;;;;;4995564;28;20042;-74
2022/06/05 13:23:34;;;;;;;12.00;6.18;;;22.10;60.00;;;;;;5003837;28;20042;-74
2022/06/05 13:26:11;;;;;;;14.95;6.38;;;22.10;59.20;;;;;;4999727;28;20416;-73
2022/06/05 13:28:45;;;;;;;12.07;6.45;;;22.10;58.90;;;;;;5000882;28;20660;-73
2022/06/05 13:31:32;;;;;;;12.40;6.90;;;22.20;58.70;;;;;;4999493;28;20030;-74
2022/06/05 13:34:38;;;;;;;10.95;5.55;;;22.20;58.50;;;;;;5006977;28;20071;-76
2022/06/05 13:37:28;;;;;;;12.70;5.78;;;22.20;58.30;;;;;;4999998;28;20092;-76
2022/06/05 13:40:24;;;;;;;12.00;6.15;;;22.20;58.40;;;;;;4999199;28;20500;-77
2022/06/05 13:42:52;;;;;;;17.58;6.15;;;22.20;58.20;;;;;;4998887;28;20054;-76
2022/06/05 13:45:36;;;;;;;15.98;6.25;;;22.20;58.40;;;;;;4997593;28;20079;-72
2022/06/05 13:48:14;;;;;;;12.15;5.95;;;22.20;58.60;;;;;;4999999;28;20476;-77
2022/06/05 13:50:59;;;;;;;10.93;5.22;;;22.20;58.90;;;;;;5013391;28;20038;-76
2022/06/05 13:53:32;;;;;;;;;;;22.20;58.50;;;;;;4999885;28;20042;-75
2022/06/05 13:56:12;;;;;;;13.32;5.50;;;22.10;57.80;;;;;;5002169;28;19951;-76
2022/06/05 13:59:02;;;;;;;11.80;4.78;;;22.10;58.10;;;;;;4995191;28;20034;-76
2022/06/05 14:01:38;;;;;;;9.55;4.72;;;22.10;58.40;;;;;;4998560;28;20080;-75
2022/06/05 14:04:23;;;;;;;13.13;7.53;;;22.10;58.20;;;;;;5003943;28;20041;-74
2022/06/05 14:07:00;;;;;;;17.38;7.50;;;22.10;58.50;;;;;;4999313;28;20477;-74
2022/06/05 14:09:45;;;;;;;9.20;5.68;;;22.10;58.70;;;;;;5001623;28;20037;-75
2022/06/05 14:12:29;;;;;;;19.10;5.68;;;22.00;59.00;;;;;;4996400;28;20023;-71
2022/06/05 14:14:56;;;;;;;12.43;6.22;;;22.00;59.20;;;;;;5001922;28;20034;-75
2022/06/05 14:17:28;;;;;;;12.75;5.20;;;22.00;59.00;;;;;;4997364;28;20054;-73
2022/06/05 14:20:09;;;;;;;14.18;6.65;;;22.00;59.30;;;;;;5000432;28;20030;-71
2022/06/05 14:22:53;;;;;;;13.82;6.70;;;21.90;59.10;;;;;;4999868;28;20126;-74
2022/06/05 14:25:40;;;;;;;13.65;7.25;;;21.80;59.30;;;;;;4997588;28;20038;-74
2022/06/05 14:28:14;;;;;;;17.77;9.02;;;21.80;59.50;;;;;;5000537;28;20054;-72
2022/06/05 14:31:09;;;;;;;15.35;7.97;;;21.80;60.20;;;;;;4997223;28;20042;-71
2022/06/05 14:33:40;;;;;;;14.32;6.60;;;21.70;60.90;;;;;;4999610;28;20750;-72
2022/06/05 14:36:08;;;;;;;11.88;6.32;;;21.60;61.20;;;;;;5002814;28;20137;-72
2022/06/05 14:38:58;;;;;;;19.13;7.75;;;21.50;61.40;;;;;;5001996;28;20026;-75
2022/06/05 14:41:38;;;;;;;13.80;7.53;;;21.50;61.20;;;;;;5000100;28;20158;-75
2022/06/05 14:44:37;;;;;;;19.85;8.70;;;21.40;61.20;;;;;;4998909;28;20063;-76
2022/06/05 14:47:24;;;;;;;16.00;8.63;;;21.40;61.20;;;;;;5000888;28;20400;-73
2022/06/05 14:50:10;;;;;;;15.05;9.13;;;21.30;61.10;;;;;;5000427;28;20030;-73
2022/06/05 14:52:58;;;;;;;;;;;21.20;61.30;;;;;;5001065;28;20038;-72
2022/06/05 14:58:44;;;;;;;16.55;11.02;;;21.10;62.00;;;;;;4997385;28;20038;-72
2022/06/05 15:01:21;;;;;;;22.20;10.82;;;21.10;61.80;;;;;;4998827;28;20046;-70
2022/06/05 15:04:12;;;;;;;20.23;12.18;;;21.10;61.30;;;;;;4992946;28;20060;-72
2022/06/05 15:06:45;;;;;;;28.05;10.00;;;21.00;60.90;;;;;;4996016;28;20037;-70
2022/06/05 15:09:38;;;;;;;18.38;10.55;;;21.00;60.90;;;;;;4992853;28;20042;-75
2022/06/05 15:12:17;;;;;;;18.70;10.95;;;21.00;60.90;;;;;;4996550;28;20058;-74
2022/06/05 15:15:02;;;;;;;21.20;11.88;;;20.90;60.90;;;;;;4996050;28;20679;-70
2022/06/05 15:17:42;;;;;;;16.83;10.20;;;20.90;61.10;;;;;;4993630;28;20035;-82
2022/06/05 15:20:20;;;;;;;21.73;11.18;;;20.90;61.20;;;;;;4998672;28;20116;-71
2022/06/05 15:23:07;;;;;;;18.40;10.43;;;20.80;61.40;;;;;;5001806;28;20049;-75
2022/06/05 15:26:09;;;;;;;31.67;13.15;;;20.80;61.40;;;;;;4999683;28;20117;-73
2022/06/05 15:28:50;;;;;;;20.40;11.18;;;20.70;61.60;;;;;;5000225;28;20493;-71
2022/06/05 15:31:41;;;;;;;20.92;12.20;;;20.70;62.00;;;;;;5000933;28;20547;-71
2022/06/05 15:34:11;;;;;;;29.08;15.02;;;20.60;62.40;;;;;;4998666;28;20121;-76
2022/06/05 15:37:03;;;;;;;27.98;15.95;;;20.60;62.70;;;;;;4994104;28;20117;-72
2022/06/05 15:39:56;;;;;;;38.08;16.52;;;20.60;63.00;;;;;;4995625;28;20449;-70
2022/06/05 15:42:36;;;;;;;31.90;17.10;;;20.50;63.50;;;;;;5001422;28;20050;-70
2022/06/05 15:45:11;;;;;;;44.92;18.70;;;20.50;62.80;;;;;;4999943;28;20095;-69
2022/06/05 15:47:51;;;;;;;28.70;16.05;;;20.50;63.50;;;;;;4991435;28;20035;-72
2022/06/05 15:50:40;;;;;;;44.17;21.42;;;20.50;64.10;;;;;;4996395;28;20032;-71
2022/06/05 15:53:27;;;;;;;38.33;24.20;;;20.50;64.40;;;;;;5002388;28;20098;-72
2022/06/05 15:56:08;;;;;;;36.95;27.27;;;20.40;64.70;;;;;;4994524;28;20077;-71
2022/06/05 15:58:41;;;;;;;34.97;25.05;;;20.40;64.80;;;;;;4995952;28;20066;-71
2022/06/05 16:01:28;;;;;;;34.75;19.70;;;20.40;65.20;;;;;;4996584;28;20092;-71
2022/06/05 16:04:16;;;;;;;34.78;22.20;;;20.30;64.90;;;;;;4999455;28;20752;-72
2022/06/05 16:06:54;;;;;;;28.85;19.45;;;20.30;65.10;;;;;;4987972;28;20057;-70
2022/06/05 16:09:34;;;;;;;30.13;18.70;;;20.20;65.50;;;;;;4992683;28;20540;-71
2022/06/05 16:12:33;;;;;;;34.88;19.48;;;20.20;65.60;;;;;;4988779;28;20033;-72
2022/06/05 16:15:17;;;;;;;32.50;17.88;;;20.10;65.50;;;;;;4999803;28;20038;-73
2022/06/05 16:18:02;;;;;;;30.25;18.27;;;20.10;65.80;;;;;;4993863;28;20026;-73
2022/06/05 16:20:29;;;;;;;30.52;17.08;;;20.00;66.10;;;;;;5000484;28;20483;-73
2022/06/05 16:23:19;;;;;;;27.15;17.52;;;20.00;66.30;;;;;;4998760;28;20032;-75
2022/06/05 16:25:49;;;;;;;90.88;22.83;;;20.00;66.50;;;;;;4992395;28;20034;-73
2022/06/05 16:28:28;;;;;;;66.15;24.17;;;19.90;66.60;;;;;;5000621;28;20030;-75
2022/06/05 16:31:29;;;;;;;44.13;26.13;;;19.90;67.10;;;;;;4991686;28;20433;-72
2022/06/05 16:33:59;;;;;;;36.90;22.92;;;19.90;67.20;;;;;;4992701;28;20038;-73
2022/06/05 16:39:34;;;;;;;34.75;19.70;;;19.80;67.10;;;;;;4992248;28;20044;-73
2022/06/05 16:42:19;;;;;;;36.60;20.48;;;19.70;67.20;;;;;;4993868;28;20510;-73